createdAt,value
2023-02-22T00:01:42.808Z,100.00
2023-02-22T00:04:11.028Z,100.00
2023-02-22T00:06:37.387Z,100.00
2023-02-22T00:09:03.892Z,100.00
2023-02-22T00:11:31.480Z,100.00
2023-02-22T00:13:57.874Z,100.00
2023-02-22T00:16:25.717Z,100.00
2023-02-22T00:18:53.275Z,100.00
2023-02-22T00:21:20.452Z,100.00
2023-02-22T00:23:48.314Z,100.00
2023-02-22T00:26:21.819Z,100.00
2023-02-22T00:28:52.045Z,100.00
2023-02-22T00:31:19.941Z,100.00
2023-02-22T00:33:46.490Z,100.00
2023-02-22T00:36:13.765Z,100.00
2023-02-22T00:38:41.100Z,100.00
2023-02-22T00:41:07.829Z,100.00
2023-02-22T00:43:34.683Z,100.00
2023-02-22T00:46:01.452Z,100.00
2023-02-22T00:48:28.341Z,100.00
2023-02-22T00:50:55.112Z,100.00
2023-02-22T00:53:25.774Z,100.00
2023-02-22T00:55:52.714Z,100.00
2023-02-22T00:58:19.632Z,100.00
2023-02-22T01:00:46.451Z,100.00
2023-02-22T01:03:15.212Z,100.00
2023-02-22T01:05:42.527Z,100.00
2023-02-22T01:08:10.446Z,100.00
2023-02-22T01:10:38.630Z,100.00
2023-02-22T01:13:08.484Z,100.00
2023-02-22T01:15:37.822Z,100.00
2023-02-22T01:18:05.180Z,100.00
2023-02-22T01:20:32.326Z,100.00
2023-02-22T01:23:00.358Z,100.00
2023-02-22T01:25:29.094Z,100.00
2023-02-22T01:27:56.912Z,100.00
2023-02-22T01:30:25.996Z,100.00
2023-02-22T01:32:52.890Z,100.00
2023-02-22T01:35:23.402Z,100.00
2023-02-22T01:37:49.837Z,100.00
2023-02-22T01:40:23.291Z,100.00
2023-02-22T01:42:57.605Z,100.00
2023-02-22T01:45:41.817Z,100.00
2023-02-22T01:48:20.485Z,100.00
2023-02-22T01:50:58.137Z,100.00
2023-02-22T01:53:35.211Z,100.00
2023-02-22T01:56:03.105Z,100.00
2023-02-22T01:58:33.508Z,100.00
2023-02-22T02:01:01.062Z,100.00
2023-02-22T02:03:33.635Z,100.00
2023-02-22T02:06:14.622Z,100.00
2023-02-22T02:08:51.384Z,100.00
2023-02-22T02:11:28.141Z,100.00
2023-02-22T02:13:57.104Z,100.00
2023-02-22T02:16:27.666Z,100.00
2023-02-22T02:18:54.497Z,100.00
2023-02-22T02:21:43.737Z,100.00
2023-02-22T02:24:43.612Z,100.00
2023-02-22T02:27:31.089Z,100.00
2023-02-22T02:30:06.267Z,100.00
2023-02-22T02:32:48.918Z,100.00
2023-02-22T02:35:33.549Z,100.00
2023-02-22T02:38:45.231Z,100.00
2023-02-22T02:41:29.203Z,100.00
2023-02-22T02:44:17.483Z,100.00
2023-02-22T02:46:56.183Z,100.00
2023-02-22T02:49:28.982Z,100.00
2023-02-22T02:51:58.360Z,100.00
2023-02-22T02:54:24.906Z,100.00
2023-02-22T02:56:51.230Z,100.00
2023-02-22T02:59:39.300Z,100.00
2023-02-22T03:02:51.267Z,100.00
2023-02-22T03:05:45.566Z,100.00
2023-02-22T03:08:34.965Z,100.00
2023-02-22T03:11:14.938Z,100.00
2023-02-22T03:14:10.970Z,100.00
2023-02-22T03:17:04.476Z,100.00
2023-02-22T03:19:37.054Z,100.00
2023-02-22T03:22:20.570Z,100.00
2023-02-22T03:24:53.689Z,100.00
2023-02-22T03:27:31.828Z,100.00
2023-02-22T03:30:08.602Z,100.00
2023-02-22T03:32:42.556Z,100.00
2023-02-22T03:35:14.632Z,100.00
2023-02-22T03:37:46.738Z,100.00
2023-02-22T03:40:19.246Z,100.00
2023-02-22T03:42:51.532Z,100.00
2023-02-22T03:45:21.131Z,100.00
2023-02-22T03:47:51.670Z,100.00
2023-02-22T03:50:32.040Z,100.00
2023-02-22T03:52:59.062Z,100.00
2023-02-22T03:55:25.465Z,100.00
2023-02-22T03:57:58.635Z,100.00
2023-02-22T04:00:29.432Z,100.00
2023-02-22T04:02:56.165Z,100.00
2023-02-22T04:05:24.664Z,100.00
2023-02-22T04:07:55.987Z,100.00
2023-02-22T04:10:23.532Z,100.00
2023-02-22T04:12:50.828Z,100.00
2023-02-22T04:15:20.516Z,100.00
2023-02-22T04:17:46.853Z,100.00
2023-02-22T04:20:13.780Z,100.00
2023-02-22T04:22:41.079Z,100.00
2023-02-22T04:25:07.820Z,100.00
2023-02-22T04:27:34.330Z,100.00
2023-02-22T04:30:00.661Z,100.00
2023-02-22T04:32:27.489Z,100.00
2023-02-22T04:34:53.884Z,100.00
2023-02-22T04:37:20.388Z,100.00
2023-02-22T04:39:46.706Z,100.00
2023-02-22T04:42:13.053Z,100.00
2023-02-22T04:44:39.383Z,100.00
2023-02-22T04:47:05.670Z,100.00
2023-02-22T04:49:31.977Z,100.00
2023-02-22T04:51:58.232Z,100.00
2023-02-22T04:54:24.861Z,100.00
2023-02-22T04:56:52.081Z,100.00
2023-02-22T04:59:19.682Z,100.00
2023-02-22T05:01:46.257Z,100.00
2023-02-22T05:04:12.616Z,100.00
2023-02-22T05:06:38.941Z,100.00
2023-02-22T05:09:05.843Z,100.00
2023-02-22T05:11:32.169Z,100.00
2023-02-22T05:13:58.442Z,100.00
2023-02-22T05:16:24.898Z,100.00
2023-02-22T05:18:51.286Z,100.00
2023-02-22T05:21:17.939Z,100.00
2023-02-22T05:23:44.528Z,100.00
2023-02-22T05:26:11.609Z,100.00
2023-02-22T05:28:40.528Z,100.00
2023-02-22T05:31:07.268Z,100.00
2023-02-22T05:33:33.654Z,100.00
2023-02-22T05:35:59.957Z,100.00
2023-02-22T05:38:26.201Z,100.00
2023-02-22T05:40:52.547Z,100.00
2023-02-22T05:43:19.013Z,100.00
2023-02-22T05:45:45.504Z,100.00
2023-02-22T05:48:12.852Z,100.00
2023-02-22T05:50:39.170Z,100.00
2023-02-22T05:53:05.564Z,100.00
2023-02-22T05:55:31.986Z,100.00
2023-02-22T05:58:01.722Z,100.00
2023-02-22T06:00:30.402Z,100.00
2023-02-22T06:02:57.680Z,100.00
2023-02-22T06:05:24.161Z,100.00
2023-02-22T06:07:50.925Z,100.00
2023-02-22T06:10:17.269Z,100.00
2023-02-22T06:12:44.241Z,100.00
2023-02-22T06:15:10.536Z,100.00
2023-02-22T06:17:36.903Z,100.00
2023-02-22T06:20:03.782Z,100.00
2023-02-22T06:22:30.077Z,100.00
2023-02-22T06:24:56.391Z,100.00
2023-02-22T06:27:22.660Z,100.00
2023-02-22T06:29:49.056Z,100.00
2023-02-22T06:32:15.411Z,100.00
2023-02-22T06:34:41.793Z,100.00
2023-02-22T06:37:08.263Z,100.00
2023-02-22T06:39:34.565Z,100.00
2023-02-22T06:42:00.858Z,100.00
2023-02-22T06:44:27.145Z,100.00
2023-02-22T06:46:53.446Z,100.00
2023-02-22T06:49:20.725Z,100.00
2023-02-22T06:51:47.719Z,100.00
2023-02-22T06:54:14.430Z,100.00
2023-02-22T06:56:40.877Z,100.00
2023-02-22T06:59:08.346Z,100.00
2023-02-22T07:01:34.774Z,100.00
2023-02-22T07:04:01.349Z,100.00
2023-02-22T07:06:27.698Z,100.00
2023-02-22T07:08:54.667Z,100.00
2023-02-22T07:11:21.055Z,100.00
2023-02-22T07:13:47.321Z,100.00
2023-02-22T07:16:13.679Z,100.00
2023-02-22T07:18:40.025Z,100.00
2023-02-22T07:21:07.537Z,100.00
2023-02-22T07:23:33.859Z,100.00
2023-02-22T07:26:01.378Z,100.00
2023-02-22T07:28:27.908Z,100.00
2023-02-22T07:30:54.241Z,100.00
2023-02-22T07:33:20.555Z,100.00
2023-02-22T07:35:49.119Z,100.00
2023-02-22T07:38:18.277Z,100.00
2023-02-22T07:40:45.187Z,100.00
2023-02-22T07:43:17.834Z,100.00
2023-02-22T07:45:44.422Z,100.00
2023-02-22T07:48:12.468Z,100.00
2023-02-22T07:50:39.985Z,100.00
2023-02-22T07:53:11.631Z,100.00
2023-02-22T07:55:38.130Z,100.00
2023-02-22T07:58:07.761Z,100.00
2023-02-22T08:00:34.028Z,100.00
2023-02-22T08:03:02.563Z,100.00
2023-02-22T08:05:30.789Z,100.00
2023-02-22T08:07:57.459Z,100.00
2023-02-22T08:10:25.376Z,100.00
2023-02-22T08:12:52.729Z,100.00
2023-02-22T08:15:49.580Z,100.00
2023-02-22T08:18:18.217Z,100.00
2023-02-22T08:20:46.985Z,100.00
2023-02-22T08:23:15.203Z,100.00
2023-02-22T08:25:41.656Z,100.00
2023-02-22T08:28:11.260Z,100.00
2023-02-22T08:30:40.385Z,100.00
2023-02-22T08:33:07.176Z,100.00
2023-02-22T08:35:33.886Z,100.00
2023-02-22T08:38:03.440Z,100.00
2023-02-22T08:40:32.565Z,100.00
2023-02-22T08:42:59.438Z,100.00
2023-02-22T08:45:25.783Z,100.00
2023-02-22T08:47:52.199Z,100.00
2023-02-22T08:50:22.048Z,100.00
2023-02-22T08:52:58.538Z,100.00
2023-02-22T08:55:27.300Z,99.01
2023-02-22T08:57:53.590Z,97.03
2023-02-22T09:00:24.628Z,95.00
2023-02-22T09:02:52.336Z,97.59
2023-02-22T09:05:18.903Z,96.11
2023-02-22T09:07:45.626Z,96.72
2023-02-22T09:10:26.149Z,93.27
2023-02-22T09:12:55.364Z,94.20
2023-02-22T09:15:22.947Z,90.50
2023-02-22T09:17:49.593Z,88.51
2023-02-22T09:20:18.181Z,90.28
2023-02-22T09:22:45.606Z,88.96
2023-02-22T09:25:17.146Z,85.68
2023-02-22T09:27:44.196Z,84.55
2023-02-22T09:30:23.515Z,83.03
2023-02-22T09:32:55.451Z,82.42
2023-02-22T09:35:26.860Z,82.51
2023-02-22T09:37:58.386Z,80.70
2023-02-22T09:40:29.561Z,81.78
2023-02-22T09:42:56.425Z,81.15
2023-02-22T09:45:27.660Z,80.18
2023-02-22T09:48:08.069Z,79.85
2023-02-22T09:50:45.515Z,79.87
2023-02-22T09:53:29.374Z,78.92
2023-02-22T09:56:00.469Z,80.29
2023-02-22T09:58:36.651Z,79.24
2023-02-22T10:01:27.963Z,79.86
2023-02-22T10:04:06.632Z,80.55
2023-02-22T10:06:34.437Z,79.50
2023-02-22T10:09:07.710Z,78.25
2023-02-22T10:11:58.325Z,76.71
2023-02-22T10:14:44.024Z,76.99
2023-02-22T10:17:46.086Z,75.61
2023-02-22T10:20:37.122Z,76.45
2023-02-22T10:23:21.234Z,76.82
2023-02-22T10:25:55.706Z,77.19
2023-02-22T10:28:30.919Z,76.88
2023-02-22T10:31:02.154Z,76.54
2023-02-22T10:33:38.201Z,76.53
2023-02-22T10:36:04.748Z,74.76
2023-02-22T10:38:35.030Z,74.74
2023-02-22T10:41:10.617Z,74.69
2023-02-22T10:43:41.422Z,74.23
2023-02-22T10:46:12.245Z,73.91
2023-02-22T10:48:42.008Z,74.15
2023-02-22T10:51:10.000Z,72.82
2023-02-22T10:53:38.406Z,72.11
2023-02-22T10:56:24.724Z,70.29
2023-02-22T10:58:59.759Z,71.31
2023-02-22T11:01:32.154Z,70.61
2023-02-22T11:04:02.029Z,71.02
2023-02-22T11:06:29.333Z,71.88
2023-02-22T11:09:18.897Z,71.65
2023-02-22T11:11:47.209Z,71.53
2023-02-22T11:14:29.054Z,72.25
2023-02-22T11:16:58.510Z,73.03
2023-02-22T11:19:27.583Z,73.46
2023-02-22T11:22:11.504Z,73.52
2023-02-22T11:24:51.877Z,73.84
2023-02-22T11:27:31.458Z,74.32
2023-02-22T11:30:29.207Z,73.55
2023-02-22T11:33:06.014Z,72.61
2023-02-22T11:35:36.920Z,72.10
2023-02-22T11:38:27.400Z,70.83
2023-02-22T11:41:17.192Z,69.43
2023-02-22T11:43:45.938Z,68.65
2023-02-22T11:46:14.203Z,67.97
2023-02-22T11:48:56.909Z,66.40
2023-02-22T11:51:45.051Z,65.81
2023-02-22T11:54:39.469Z,65.76
2023-02-22T11:57:17.750Z,65.13
2023-02-22T12:00:01.677Z,65.73
2023-02-22T12:03:10.356Z,64.81
2023-02-22T12:06:12.041Z,66.00
2023-02-22T12:09:13.868Z,66.21
2023-02-22T12:11:51.609Z,66.12
2023-02-22T12:14:34.392Z,65.91
2023-02-22T12:17:43.619Z,65.61
2023-02-22T12:20:30.840Z,66.29
2023-02-22T12:23:14.112Z,66.80
2023-02-22T12:26:11.886Z,65.22
2023-02-22T12:28:43.587Z,65.78
2023-02-22T12:31:33.975Z,64.41
2023-02-22T12:34:19.800Z,64.99
2023-02-22T12:36:54.381Z,64.84
2023-02-22T12:39:52.096Z,62.75
2023-02-22T12:42:55.646Z,63.49
2023-02-22T12:45:31.751Z,62.70
2023-02-22T12:48:21.476Z,61.73
2023-02-22T12:50:53.274Z,62.19
2023-02-22T12:53:28.336Z,60.92
2023-02-22T12:56:04.516Z,60.41
2023-02-22T12:58:46.303Z,59.40
2023-02-22T13:01:20.023Z,59.11
2023-02-22T13:03:46.775Z,58.76
2023-02-22T13:06:33.937Z,59.36
2023-02-22T13:09:29.642Z,60.23
2023-02-22T13:12:22.196Z,60.34
2023-02-22T13:14:56.098Z,59.42
2023-02-22T13:17:38.707Z,60.54
2023-02-22T13:20:26.313Z,60.01
2023-02-22T13:22:59.266Z,60.02
2023-02-22T13:25:35.312Z,59.64
2023-02-22T13:28:23.209Z,59.40
2023-02-22T13:31:14.267Z,59.48
2023-02-22T13:34:19.010Z,59.41
2023-02-22T13:36:58.076Z,60.18
2023-02-22T13:39:36.347Z,60.85
2023-02-22T13:42:25.165Z,60.96
2023-02-22T13:45:26.940Z,60.10
2023-02-22T13:48:13.217Z,60.49
2023-02-22T13:51:06.502Z,60.60
2023-02-22T13:53:46.923Z,60.65
2023-02-22T13:56:15.107Z,60.80
2023-02-22T13:58:54.125Z,61.44
2023-02-22T14:01:43.368Z,61.81
2023-02-22T14:04:28.176Z,62.49
2023-02-22T14:07:02.909Z,61.75
2023-02-22T14:09:46.816Z,62.15
2023-02-22T14:12:28.383Z,61.98
2023-02-22T14:15:22.015Z,62.83
2023-02-22T14:17:56.932Z,62.02
2023-02-22T14:20:29.892Z,62.11
2023-02-22T14:22:57.782Z,62.21
2023-02-22T14:25:39.012Z,62.41
2023-02-22T14:28:09.282Z,62.10
2023-02-22T14:30:38.426Z,62.50
2023-02-22T14:33:44.287Z,62.37
2023-02-22T14:36:11.288Z,62.52
2023-02-22T14:38:37.889Z,62.94
2023-02-22T14:41:05.830Z,63.09
2023-02-22T14:43:37.178Z,62.98
2023-02-22T14:46:05.900Z,63.28
2023-02-22T14:48:42.890Z,62.03
2023-02-22T14:51:29.117Z,62.74
2023-02-22T14:54:30.374Z,62.58
2023-02-22T14:57:14.480Z,61.78
2023-02-22T15:00:30.976Z,61.48
2023-02-22T15:02:59.792Z,61.70
2023-02-22T15:05:30.355Z,61.48
2023-02-22T15:08:03.207Z,60.78
2023-02-22T15:10:31.801Z,60.39
2023-02-22T15:13:09.911Z,60.97
2023-02-22T15:15:39.040Z,61.73
2023-02-22T15:18:17.334Z,62.19
2023-02-22T15:20:43.795Z,63.05
2023-02-22T15:23:10.800Z,63.73
2023-02-22T15:25:39.101Z,64.05
2023-02-22T15:28:09.468Z,64.44
2023-02-22T15:30:35.988Z,65.38
2023-02-22T15:33:24.470Z,65.48
2023-02-22T15:35:57.623Z,66.46
2023-02-22T15:38:29.543Z,67.04
2023-02-22T15:41:04.180Z,67.45
2023-02-22T15:43:32.060Z,68.12
2023-02-22T15:45:59.851Z,69.12
2023-02-22T15:48:27.813Z,69.21
2023-02-22T15:51:06.952Z,70.69
2023-02-22T15:53:40.045Z,71.13
2023-02-22T15:56:12.280Z,71.44
2023-02-22T15:58:39.107Z,71.69
2023-02-22T16:01:17.043Z,72.42
2023-02-22T16:03:56.186Z,73.10
2023-02-22T16:06:36.200Z,73.95
2023-02-22T16:09:18.229Z,74.28
2023-02-22T16:11:46.374Z,73.86
2023-02-22T16:14:34.302Z,73.93
2023-02-22T16:17:29.490Z,74.17
2023-02-22T16:20:00.758Z,74.57
2023-02-22T16:22:36.060Z,75.36
2023-02-22T16:25:17.722Z,76.21
2023-02-22T16:27:48.095Z,76.95
2023-02-22T16:30:24.049Z,77.79
2023-02-22T16:32:53.241Z,78.57
2023-02-22T16:35:19.673Z,79.08
2023-02-22T16:37:51.575Z,79.30
2023-02-22T16:40:34.227Z,80.22
2023-02-22T16:43:06.832Z,80.45
2023-02-22T16:45:34.185Z,80.76
2023-02-22T16:48:04.642Z,81.27
2023-02-22T16:50:30.973Z,81.79
2023-02-22T16:52:59.993Z,82.18
2023-02-22T16:55:26.751Z,82.68
2023-02-22T16:57:56.847Z,82.96
2023-02-22T17:00:31.138Z,83.64
2023-02-22T17:03:05.341Z,84.19
2023-02-22T17:05:36.169Z,84.71
2023-02-22T17:08:03.683Z,84.79
2023-02-22T17:10:30.325Z,85.16
2023-02-22T17:12:58.045Z,84.49
2023-02-22T17:15:34.654Z,85.00
2023-02-22T17:18:06.312Z,85.87
2023-02-22T17:20:32.735Z,86.42
2023-02-22T17:23:01.271Z,87.28
2023-02-22T17:25:32.637Z,87.63
2023-02-22T17:27:58.906Z,87.93
2023-02-22T17:30:25.577Z,87.66
2023-02-22T17:32:52.697Z,87.11
2023-02-22T17:35:23.067Z,87.10
2023-02-22T17:37:50.343Z,86.98
2023-02-22T17:40:17.021Z,86.91
2023-02-22T17:42:45.958Z,86.80
2023-02-22T17:45:14.011Z,86.98
2023-02-22T17:47:42.396Z,86.48
2023-02-22T17:50:11.317Z,86.63
2023-02-22T17:52:38.201Z,86.99
2023-02-22T17:55:05.710Z,87.81
2023-02-22T17:57:32.160Z,88.03
2023-02-22T18:00:00.207Z,87.94
2023-02-22T18:02:26.966Z,87.47
2023-02-22T18:04:53.332Z,87.83
2023-02-22T18:07:19.828Z,87.86
2023-02-22T18:09:46.922Z,88.01
2023-02-22T18:12:13.314Z,87.71
2023-02-22T18:14:39.601Z,87.67
2023-02-22T18:17:06.040Z,87.88
2023-02-22T18:19:32.355Z,87.75
2023-02-22T18:22:00.154Z,87.45
2023-02-22T18:24:26.970Z,88.11
2023-02-22T18:26:53.396Z,88.48
2023-02-22T18:29:19.721Z,88.82
2023-02-22T18:31:46.051Z,88.60
2023-02-22T18:34:13.039Z,88.80
2023-02-22T18:36:39.712Z,88.94
2023-02-22T18:39:11.504Z,89.52
2023-02-22T18:41:38.576Z,89.87
2023-02-22T18:44:10.825Z,90.29
2023-02-22T18:46:37.148Z,90.72
2023-02-22T18:49:04.254Z,90.65
2023-02-22T18:51:30.762Z,90.91
2023-02-22T18:54:00.280Z,90.80
2023-02-22T18:56:33.768Z,91.25
2023-02-22T18:59:02.788Z,90.76
2023-02-22T19:01:31.362Z,90.30
2023-02-22T19:03:57.813Z,90.42
2023-02-22T19:06:24.271Z,90.82
2023-02-22T19:08:50.850Z,90.88
2023-02-22T19:11:19.567Z,90.99
2023-02-22T19:13:47.518Z,91.43
2023-02-22T19:16:15.227Z,91.74
2023-02-22T19:18:43.910Z,92.20
2023-02-22T19:21:11.041Z,91.92
2023-02-22T19:23:45.199Z,90.97
2023-02-22T19:26:21.079Z,91.21
2023-02-22T19:28:48.690Z,91.22
2023-02-22T19:31:23.212Z,91.56
2023-02-22T19:33:52.205Z,92.01
2023-02-22T19:36:20.487Z,92.08
2023-02-22T19:38:46.789Z,92.38
2023-02-22T19:41:18.080Z,93.15
2023-02-22T19:43:46.083Z,93.53
2023-02-22T19:46:12.982Z,94.11
2023-02-22T19:48:39.766Z,94.45
2023-02-22T19:51:08.250Z,94.85
2023-02-22T19:53:35.252Z,95.15
2023-02-22T19:56:06.469Z,95.23
2023-02-22T19:58:36.525Z,94.98
2023-02-22T20:01:13.227Z,95.16
2023-02-22T20:03:41.614Z,95.44
2023-02-22T20:06:11.897Z,95.63
2023-02-22T20:08:41.890Z,96.09
2023-02-22T20:11:11.623Z,95.22
2023-02-22T20:13:38.652Z,94.65
2023-02-22T20:16:05.374Z,94.76
2023-02-22T20:18:31.770Z,95.32
2023-02-22T20:20:58.068Z,95.71
2023-02-22T20:23:24.402Z,95.94
2023-02-22T20:25:52.508Z,96.16
2023-02-22T20:28:18.814Z,96.28
2023-02-22T20:30:45.212Z,96.12
2023-02-22T20:33:13.464Z,96.20
2023-02-22T20:35:40.148Z,96.14
2023-02-22T20:38:06.573Z,96.40
2023-02-22T20:40:32.925Z,96.37
2023-02-22T20:42:59.215Z,96.43
2023-02-22T20:45:25.637Z,96.45
2023-02-22T20:47:52.030Z,96.17
2023-02-22T20:50:18.451Z,96.26
2023-02-22T20:52:45.191Z,95.92
2023-02-22T20:55:11.565Z,96.06
2023-02-22T20:57:38.369Z,96.31
2023-02-22T21:00:05.397Z,96.15
2023-02-22T21:02:31.694Z,95.47
2023-02-22T21:04:58.022Z,94.55
2023-02-22T21:07:24.478Z,94.32
2023-02-22T21:09:50.814Z,94.10
2023-02-22T21:12:17.169Z,93.76
2023-02-22T21:14:46.192Z,93.31
2023-02-22T21:17:12.527Z,94.31
2023-02-22T21:19:38.836Z,94.92
2023-02-22T21:22:08.045Z,95.09
2023-02-22T21:24:36.655Z,95.09
2023-02-22T21:27:03.488Z,94.44
2023-02-22T21:29:29.859Z,94.73
2023-02-22T21:31:56.499Z,95.08
2023-02-22T21:34:23.444Z,95.24
2023-02-22T21:36:50.480Z,94.95
2023-02-22T21:39:19.815Z,94.78
2023-02-22T21:41:51.143Z,94.25
2023-02-22T21:44:18.327Z,93.73
2023-02-22T21:46:46.702Z,92.84
2023-02-22T21:49:13.064Z,92.57
2023-02-22T21:51:39.412Z,92.88
2023-02-22T21:54:08.356Z,93.18
2023-02-22T21:56:37.602Z,93.72
2023-02-22T21:59:07.212Z,93.71
2023-02-22T22:01:36.533Z,93.67
2023-02-22T22:04:04.324Z,93.86
2023-02-22T22:06:32.196Z,93.00
2023-02-22T22:09:00.056Z,93.43
2023-02-22T22:11:26.737Z,92.58
2023-02-22T22:13:57.342Z,92.76
2023-02-22T22:16:25.931Z,92.61
2023-02-22T22:18:53.085Z,92.50
2023-02-22T22:21:22.622Z,92.02
2023-02-22T22:23:50.384Z,91.97
2023-02-22T22:26:19.863Z,91.74
2023-02-22T22:28:49.639Z,92.11
2023-02-22T22:31:19.523Z,92.15
2023-02-22T22:33:46.349Z,92.30
2023-02-22T22:36:15.738Z,92.22
2023-02-22T22:38:43.102Z,91.99
2023-02-22T22:41:13.133Z,91.89
2023-02-22T22:43:41.375Z,91.93
2023-02-22T22:46:08.551Z,92.19
2023-02-22T22:48:38.910Z,92.43
2023-02-22T22:51:09.699Z,91.95
2023-02-22T22:53:38.587Z,91.99
2023-02-22T22:56:19.142Z,91.38
2023-02-22T22:58:51.087Z,91.67
2023-02-22T23:01:20.208Z,91.57
2023-02-22T23:03:54.582Z,91.62
2023-02-22T23:06:26.581Z,91.67
2023-02-22T23:09:11.894Z,91.54
2023-02-22T23:11:44.329Z,91.64
2023-02-22T23:14:18.869Z,91.26
2023-02-22T23:16:50.068Z,90.96
2023-02-22T23:19:16.726Z,91.36
2023-02-22T23:21:46.277Z,91.67
2023-02-22T23:24:17.504Z,91.90
2023-02-22T23:26:51.228Z,92.13
2023-02-22T23:29:19.385Z,92.51
2023-02-22T23:31:48.213Z,92.32
2023-02-22T23:34:20.876Z,92.25
2023-02-22T23:36:47.526Z,92.11
2023-02-22T23:39:21.758Z,91.76
2023-02-22T23:41:53.366Z,91.81
2023-02-22T23:44:21.189Z,92.11
2023-02-22T23:46:48.896Z,92.00
2023-02-22T23:49:20.300Z,91.92
2023-02-22T23:51:47.040Z,92.00
2023-02-22T23:54:16.111Z,92.25
2023-02-22T23:56:53.513Z,92.83
2023-02-22T23:59:19.941Z,93.29
